createdAt,value
2022-08-03T00:01:50.333Z,20.33
2022-08-03T00:04:18.810Z,20.36
2022-08-03T00:06:47.214Z,20.31
2022-08-03T00:09:16.021Z,20.29
2022-08-03T00:11:44.400Z,20.32
2022-08-03T00:14:12.747Z,20.26
2022-08-03T00:16:41.374Z,20.25
2022-08-03T00:19:11.292Z,20.17
2022-08-03T00:21:39.893Z,20.11
2022-08-03T00:24:08.419Z,20.04
2022-08-03T00:26:36.661Z,20.03
2022-08-03T00:29:05.257Z,20.05
2022-08-03T00:31:45.027Z,19.91
2022-08-03T00:34:36.687Z,19.90
2022-08-03T00:37:12.142Z,19.83
2022-08-03T00:39:43.722Z,19.78
2022-08-03T00:42:12.062Z,19.79
2022-08-03T00:44:41.834Z,19.82
2022-08-03T00:47:11.248Z,19.83
2022-08-03T00:49:42.162Z,19.75
2022-08-03T00:52:11.084Z,19.67
2022-08-03T00:54:40.324Z,19.62
2022-08-03T00:57:09.058Z,19.55
2022-08-03T00:59:38.455Z,19.51
2022-08-03T01:02:07.259Z,19.44
2022-08-03T01:04:35.531Z,19.35
2022-08-03T01:07:12.169Z,19.32
2022-08-03T01:09:46.271Z,19.30
2022-08-03T01:12:20.590Z,19.28
2022-08-03T01:14:53.113Z,19.26
2022-08-03T01:17:24.737Z,19.27
2022-08-03T01:19:55.660Z,19.34
2022-08-03T01:22:39.001Z,19.37
2022-08-03T01:25:15.380Z,19.38
2022-08-03T01:27:53.121Z,19.41
2022-08-03T01:30:25.543Z,19.35
2022-08-03T01:33:01.671Z,19.32
2022-08-03T01:35:35.426Z,19.33
2022-08-03T01:38:11.561Z,19.35
2022-08-03T01:40:41.972Z,19.35
2022-08-03T01:43:12.136Z,19.33
2022-08-03T01:45:44.962Z,19.31
2022-08-03T01:48:14.902Z,19.24
2022-08-03T01:50:44.064Z,19.22
2022-08-03T01:53:14.744Z,19.19
2022-08-03T01:55:44.326Z,19.19
2022-08-03T01:58:15.165Z,19.18
2022-08-03T02:00:47.381Z,19.15
2022-08-03T02:03:16.943Z,19.16
2022-08-03T02:05:46.664Z,19.15
2022-08-03T02:08:18.073Z,19.11
2022-08-03T02:10:47.794Z,19.08
2022-08-03T02:13:16.644Z,19.07
2022-08-03T02:15:47.534Z,19.04
2022-08-03T02:18:16.423Z,19.03
2022-08-03T02:20:45.332Z,18.98
2022-08-03T02:23:14.184Z,18.94
2022-08-03T02:25:45.045Z,18.82
2022-08-03T02:28:18.025Z,18.77
2022-08-03T02:30:51.807Z,18.73
2022-08-03T02:33:26.894Z,18.67
2022-08-03T02:35:55.603Z,18.66
2022-08-03T02:38:27.635Z,18.63
2022-08-03T02:40:57.034Z,18.60
2022-08-03T02:43:26.684Z,18.63
2022-08-03T02:45:56.494Z,18.66
2022-08-03T02:48:26.970Z,18.67
2022-08-03T02:50:56.123Z,18.62
2022-08-03T02:53:26.263Z,18.62
2022-08-03T02:55:55.174Z,18.61
2022-08-03T02:58:24.873Z,18.58
2022-08-03T03:00:53.803Z,18.58
2022-08-03T03:03:23.973Z,18.57
2022-08-03T03:05:57.705Z,18.53
2022-08-03T03:08:29.401Z,18.42
2022-08-03T03:10:58.414Z,18.39
2022-08-03T03:13:28.524Z,18.36
2022-08-03T03:15:58.293Z,18.36
2022-08-03T03:18:29.102Z,18.27
2022-08-03T03:20:58.134Z,18.21
2022-08-03T03:23:26.883Z,18.20
2022-08-03T03:25:56.540Z,18.17
2022-08-03T03:28:25.323Z,18.04
2022-08-03T03:30:53.814Z,17.90
2022-08-03T03:33:22.663Z,17.78
2022-08-03T03:35:53.334Z,17.66
2022-08-03T03:38:22.062Z,17.62
2022-08-03T03:40:50.837Z,17.48
2022-08-03T03:43:19.925Z,17.41
2022-08-03T03:45:49.043Z,17.41
2022-08-03T03:48:17.548Z,17.47
2022-08-03T03:50:45.923Z,17.62
2022-08-03T03:53:16.156Z,17.74
2022-08-03T03:55:59.297Z,17.77
2022-08-03T03:58:32.064Z,17.90
2022-08-03T04:01:00.996Z,18.01
2022-08-03T04:03:29.515Z,17.95
2022-08-03T04:06:08.573Z,18.02
2022-08-03T04:08:47.081Z,18.03
2022-08-03T04:11:21.362Z,18.05
2022-08-03T04:14:01.761Z,18.08
2022-08-03T04:16:32.940Z,18.12
2022-08-03T04:19:03.713Z,18.25
2022-08-03T04:21:34.039Z,18.38
2022-08-03T04:24:05.642Z,18.46
2022-08-03T04:26:36.706Z,18.56
2022-08-03T04:29:06.769Z,18.66
2022-08-03T04:31:36.653Z,18.77
2022-08-03T04:34:06.173Z,18.88
2022-08-03T04:36:38.642Z,18.95
2022-08-03T04:39:10.271Z,19.06
2022-08-03T04:42:06.994Z,19.15
2022-08-03T04:44:30.486Z,19.25
2022-08-03T04:46:59.874Z,19.36
2022-08-03T04:49:29.006Z,19.45
2022-08-03T04:51:57.610Z,19.56
2022-08-03T04:54:27.468Z,19.68
2022-08-03T04:56:56.044Z,19.76
2022-08-03T04:59:24.420Z,19.90
2022-08-03T05:01:53.187Z,20.05
2022-08-03T05:04:21.672Z,20.17
2022-08-03T05:06:54.825Z,20.27
2022-08-03T05:09:48.933Z,20.40
2022-08-03T05:12:13.861Z,20.46
2022-08-03T05:14:42.504Z,20.53
2022-08-03T05:17:12.191Z,20.64
2022-08-03T05:19:40.586Z,20.73
2022-08-03T05:22:10.041Z,20.79
2022-08-03T05:24:38.592Z,20.84
2022-08-03T05:27:06.969Z,20.94
2022-08-03T05:29:37.200Z,21.04
2022-08-03T05:32:08.290Z,21.14
2022-08-03T05:34:47.159Z,21.23
2022-08-03T05:37:16.602Z,21.25
2022-08-03T05:39:44.980Z,21.33
2022-08-03T05:42:13.609Z,21.39
2022-08-03T05:44:43.412Z,21.47
2022-08-03T05:47:11.885Z,21.55
2022-08-03T05:49:40.421Z,21.67
2022-08-03T05:52:13.921Z,21.81
2022-08-03T05:54:56.624Z,21.87
2022-08-03T05:57:26.445Z,21.91
2022-08-03T05:59:58.420Z,22.06
2022-08-03T06:02:27.554Z,22.16
2022-08-03T06:04:56.037Z,22.32
2022-08-03T06:07:24.772Z,22.36
2022-08-03T06:10:35.506Z,22.45
2022-08-03T06:12:42.299Z,22.58
2022-08-03T06:15:12.599Z,22.70
2022-08-03T06:17:47.633Z,22.79
2022-08-03T06:20:18.233Z,22.89
2022-08-03T06:22:51.130Z,22.96
2022-08-03T06:25:29.619Z,23.04
2022-08-03T06:27:58.075Z,23.08
2022-08-03T06:30:27.934Z,23.07
2022-08-03T06:32:56.902Z,23.08
2022-08-03T06:35:25.482Z,23.11
2022-08-03T06:37:53.991Z,23.22
2022-08-03T06:40:29.072Z,23.33
2022-08-03T06:42:57.508Z,23.42
2022-08-03T06:45:32.148Z,23.52
2022-08-03T06:48:04.551Z,23.71
2022-08-03T06:50:33.453Z,23.71
2022-08-03T06:53:02.190Z,23.76
2022-08-03T06:55:30.707Z,23.87
2022-08-03T06:58:00.099Z,24.02
2022-08-03T07:00:34.610Z,24.16
2022-08-03T07:03:03.104Z,24.26
2022-08-03T07:05:33.673Z,24.38
2022-08-03T07:08:03.925Z,24.48
2022-08-03T07:10:32.402Z,24.62
2022-08-03T07:13:00.730Z,24.77
2022-08-03T07:15:38.319Z,24.89
2022-08-03T07:18:24.605Z,25.00
2022-08-03T07:20:59.913Z,25.11
2022-08-03T07:23:28.801Z,25.26
2022-08-03T07:25:57.311Z,25.39
2022-08-03T07:28:25.801Z,25.46
2022-08-03T07:30:54.271Z,25.62
2022-08-03T07:33:24.769Z,25.76
2022-08-03T07:35:53.112Z,25.80
2022-08-03T07:38:21.739Z,25.83
2022-08-03T07:40:50.302Z,25.89
2022-08-03T07:43:19.092Z,25.99
2022-08-03T07:45:47.541Z,26.07
2022-08-03T07:48:16.032Z,26.21
2022-08-03T07:50:46.490Z,26.26
2022-08-03T07:53:14.960Z,26.29
2022-08-03T07:55:43.350Z,26.29
2022-08-03T07:58:19.179Z,26.38
2022-08-03T08:00:51.175Z,26.45
2022-08-03T08:03:19.846Z,26.42
2022-08-03T08:05:49.675Z,26.44
2022-08-03T08:08:18.181Z,26.51
2022-08-03T08:10:57.833Z,26.64
2022-08-03T08:13:27.343Z,26.80
2022-08-03T08:15:55.824Z,26.89
2022-08-03T08:18:24.522Z,26.96
2022-08-03T08:20:54.584Z,27.06
2022-08-03T08:23:42.032Z,27.12
2022-08-03T08:26:12.336Z,27.35
2022-08-03T08:28:41.069Z,27.54
2022-08-03T08:31:09.463Z,27.72
2022-08-03T08:34:02.711Z,27.84
2022-08-03T08:36:27.839Z,27.87
2022-08-03T08:38:56.611Z,27.95
2022-08-03T08:41:25.047Z,27.96
2022-08-03T08:44:00.988Z,28.06
2022-08-03T08:46:31.539Z,28.19
2022-08-03T08:49:00.651Z,28.18
2022-08-03T08:51:54.647Z,28.04
2022-08-03T08:54:27.474Z,27.99
2022-08-03T08:56:57.731Z,28.04
2022-08-03T08:59:26.728Z,28.24
2022-08-03T09:02:15.457Z,28.16
2022-08-03T09:04:45.891Z,28.30
2022-08-03T09:07:20.433Z,28.36
2022-08-03T09:10:07.598Z,28.48
2022-08-03T09:12:42.815Z,28.70
2022-08-03T09:15:18.877Z,28.82
2022-08-03T09:17:50.819Z,28.86
2022-08-03T09:20:20.625Z,28.93
2022-08-03T09:22:58.342Z,28.90
2022-08-03T09:25:30.999Z,28.96
2022-08-03T09:28:06.510Z,29.02
2022-08-03T09:30:35.943Z,29.04
2022-08-03T09:33:05.006Z,29.19
2022-08-03T09:35:53.047Z,29.29
2022-08-03T09:38:24.501Z,29.39
2022-08-03T09:40:58.877Z,29.54
2022-08-03T09:43:28.301Z,29.75
2022-08-03T09:46:05.227Z,29.93
2022-08-03T09:48:35.283Z,29.95
2022-08-03T09:51:12.865Z,29.93
2022-08-03T09:53:58.914Z,29.92
2022-08-03T09:56:40.152Z,29.89
2022-08-03T09:59:08.798Z,29.99
2022-08-03T10:01:37.598Z,29.99
2022-08-03T10:04:06.402Z,30.05
2022-08-03T10:06:34.793Z,30.20
2022-08-03T10:09:08.545Z,30.44
2022-08-03T10:11:41.223Z,30.56
2022-08-03T10:14:11.871Z,30.56
2022-08-03T10:16:41.213Z,30.62
2022-08-03T10:19:10.750Z,30.66
2022-08-03T10:21:40.743Z,30.85
2022-08-03T10:24:11.394Z,30.85
2022-08-03T10:26:50.003Z,30.70
2022-08-03T10:29:22.972Z,30.63
2022-08-03T10:31:57.568Z,30.69
2022-08-03T10:34:28.282Z,30.89
2022-08-03T10:36:58.711Z,31.01
2022-08-03T10:39:30.142Z,31.09
2022-08-03T10:41:59.995Z,31.15
2022-08-03T10:44:34.779Z,31.12
2022-08-03T10:47:03.463Z,31.02
2022-08-03T10:49:34.565Z,30.93
2022-08-03T10:52:11.359Z,30.99
2022-08-03T10:55:07.829Z,31.15
2022-08-03T10:57:49.801Z,31.25
2022-08-03T11:00:19.605Z,31.38
2022-08-03T11:02:58.785Z,31.56
2022-08-03T11:05:27.586Z,31.52
2022-08-03T11:08:11.143Z,31.61
2022-08-03T11:10:41.289Z,31.73
2022-08-03T11:13:10.706Z,31.64
2022-08-03T11:15:40.511Z,31.54
2022-08-03T11:18:11.267Z,31.41
2022-08-03T11:20:48.073Z,31.33
2022-08-03T11:23:17.484Z,31.45
2022-08-03T11:25:56.903Z,31.48
2022-08-03T11:28:30.521Z,31.65
2022-08-03T11:31:46.704Z,31.73
2022-08-03T11:34:10.490Z,31.71
2022-08-03T11:36:53.730Z,31.87
2022-08-03T11:39:22.751Z,31.82
2022-08-03T11:41:51.146Z,31.78
2022-08-03T11:44:34.612Z,31.85
2022-08-03T11:47:04.644Z,32.09
2022-08-03T11:49:33.268Z,32.18
2022-08-03T11:52:02.223Z,32.24
2022-08-03T11:54:31.223Z,32.34
2022-08-03T11:56:59.602Z,32.46
2022-08-03T11:59:34.243Z,32.45
2022-08-03T12:02:09.487Z,32.46
2022-08-03T12:04:51.614Z,32.32
2022-08-03T12:07:25.012Z,32.39
2022-08-03T12:10:09.833Z,32.39
2022-08-03T12:12:39.666Z,32.53
2022-08-03T12:15:10.483Z,32.58
2022-08-03T12:17:42.343Z,32.57
2022-08-03T12:20:12.124Z,32.59
2022-08-03T12:22:41.771Z,32.60
2022-08-03T12:25:38.466Z,32.53
2022-08-03T12:28:36.519Z,32.40
2022-08-03T12:31:02.904Z,32.42
2022-08-03T12:33:32.871Z,32.39
2022-08-03T12:36:06.575Z,32.49
2022-08-03T12:38:37.196Z,32.42
2022-08-03T12:41:13.812Z,32.37
2022-08-03T12:43:50.612Z,32.28
2022-08-03T12:46:20.021Z,32.35
2022-08-03T12:48:59.455Z,32.33
2022-08-03T12:51:29.921Z,32.37
2022-08-03T12:53:59.313Z,32.47
2022-08-03T12:56:28.063Z,32.54
2022-08-03T12:58:56.412Z,32.51
2022-08-03T13:01:28.001Z,32.43
2022-08-03T13:03:56.612Z,32.34
2022-08-03T13:06:25.977Z,32.39
2022-08-03T13:09:05.307Z,32.36
2022-08-03T13:11:58.256Z,32.44
2022-08-03T13:14:24.014Z,32.31
2022-08-03T13:16:52.570Z,32.21
2022-08-03T13:19:21.015Z,32.06
2022-08-03T13:21:53.627Z,32.14
2022-08-03T13:24:34.322Z,32.22
2022-08-03T13:28:02.255Z,32.14
2022-08-03T13:29:55.722Z,32.10
2022-08-03T13:32:24.474Z,32.22
2022-08-03T13:34:53.053Z,32.31
2022-08-03T13:37:22.293Z,32.27
2022-08-03T13:39:59.516Z,32.35
2022-08-03T13:42:33.551Z,32.39
2022-08-03T13:45:02.793Z,32.30
2022-08-03T13:47:31.465Z,32.25
2022-08-03T13:50:02.730Z,32.15
2022-08-03T13:52:33.679Z,32.01
2022-08-03T13:55:02.096Z,31.92
2022-08-03T13:58:02.349Z,31.92
2022-08-03T14:00:27.044Z,31.87
2022-08-03T14:03:03.833Z,31.80
2022-08-03T14:05:35.922Z,31.79
2022-08-03T14:08:05.948Z,31.61
2022-08-03T14:10:36.286Z,31.62
2022-08-03T14:13:05.226Z,31.68
2022-08-03T14:15:37.666Z,31.62
2022-08-03T14:18:15.323Z,31.59
2022-08-03T14:20:47.701Z,31.64
2022-08-03T14:23:19.564Z,31.64
2022-08-03T14:25:51.788Z,31.61
2022-08-03T14:28:22.774Z,31.56
2022-08-03T14:30:54.053Z,31.53
2022-08-03T14:33:22.645Z,31.49
2022-08-03T14:35:51.484Z,31.40
2022-08-03T14:38:20.109Z,31.27
2022-08-03T14:40:49.079Z,31.25
2022-08-03T14:43:20.400Z,31.23
2022-08-03T14:45:48.995Z,31.23
2022-08-03T14:50:30.652Z,31.29
2022-08-03T14:51:07.872Z,31.25
2022-08-03T14:53:36.189Z,31.17
2022-08-03T14:56:09.640Z,31.27
2022-08-03T14:58:39.215Z,31.26
2022-08-03T15:02:05.621Z,31.19
2022-08-03T15:03:58.813Z,31.07
2022-08-03T15:06:27.304Z,30.98
2022-08-03T15:09:21.554Z,30.97
2022-08-03T15:11:44.517Z,30.94
2022-08-03T15:14:13.515Z,30.94
2022-08-03T15:16:43.733Z,30.91
2022-08-03T15:20:00.341Z,30.91
2022-08-03T15:22:02.193Z,30.88
2022-08-03T15:24:30.735Z,30.93
2022-08-03T15:26:59.295Z,30.92
2022-08-03T15:30:06.791Z,30.92
2022-08-03T15:32:17.113Z,30.86
2022-08-03T15:34:50.319Z,30.80
2022-08-03T15:37:21.033Z,30.72
2022-08-03T15:39:59.558Z,30.76
2022-08-03T15:42:30.358Z,30.73
2022-08-03T15:44:58.796Z,30.77
2022-08-03T15:47:27.456Z,30.72
2022-08-03T15:49:58.093Z,30.70
2022-08-03T15:52:26.654Z,30.62
2022-08-03T15:54:55.088Z,30.52
2022-08-03T15:57:24.267Z,30.49
2022-08-03T15:59:52.653Z,30.44
2022-08-03T16:02:21.753Z,30.46
2022-08-03T16:04:50.202Z,30.54
2022-08-03T16:07:40.735Z,30.54
2022-08-03T16:10:30.836Z,30.54
2022-08-03T16:13:00.379Z,30.58
2022-08-03T16:15:29.372Z,30.50
2022-08-03T16:17:57.899Z,30.38
2022-08-03T16:20:31.108Z,30.38
2022-08-03T16:23:10.964Z,30.34
2022-08-03T16:25:40.474Z,30.38
2022-08-03T16:28:13.795Z,30.30
2022-08-03T16:30:43.763Z,30.27
2022-08-03T16:33:17.245Z,30.20
2022-08-03T16:35:46.685Z,30.19
2022-08-03T16:38:19.068Z,30.16
2022-08-03T16:40:51.890Z,30.07
2022-08-03T16:43:22.242Z,30.01
2022-08-03T16:45:50.895Z,30.00
2022-08-03T16:48:19.815Z,29.97
2022-08-03T16:50:48.744Z,29.97
2022-08-03T16:53:18.689Z,29.91
2022-08-03T16:56:05.580Z,29.86
2022-08-03T16:58:42.117Z,29.84
2022-08-03T17:01:22.038Z,29.78
2022-08-03T17:04:02.504Z,29.73
2022-08-03T17:06:34.208Z,29.68
2022-08-03T17:09:09.219Z,29.65
2022-08-03T17:11:44.071Z,29.63
2022-08-03T17:14:16.270Z,29.58
2022-08-03T17:16:52.648Z,29.54
2022-08-03T17:19:23.316Z,29.49
2022-08-03T17:22:01.392Z,29.44
2022-08-03T17:24:33.283Z,29.36
2022-08-03T17:27:08.650Z,29.29
2022-08-03T17:29:45.152Z,29.26
2022-08-03T17:32:18.343Z,29.17
2022-08-03T17:34:50.902Z,29.13
2022-08-03T17:37:50.660Z,29.09
2022-08-03T17:40:17.425Z,28.98
2022-08-03T17:42:50.503Z,28.75
2022-08-03T17:45:52.274Z,28.60
2022-08-03T17:48:25.217Z,28.30
2022-08-03T17:50:57.637Z,28.17
2022-08-03T17:53:31.163Z,28.04
2022-08-03T17:56:45.170Z,27.88
2022-08-03T17:58:59.878Z,27.66
2022-08-03T18:02:00.602Z,27.48
2022-08-03T18:04:41.292Z,27.31
2022-08-03T18:07:13.414Z,27.15
2022-08-03T18:10:03.903Z,27.10
2022-08-03T18:12:45.479Z,26.94
2022-08-03T18:15:21.396Z,26.78
2022-08-03T18:18:01.857Z,26.66
2022-08-03T18:20:40.411Z,26.52
2022-08-03T18:23:24.692Z,26.45
2022-08-03T18:26:00.848Z,26.35
2022-08-03T18:28:30.989Z,26.31
2022-08-03T18:31:01.887Z,26.27
2022-08-03T18:34:17.829Z,26.15
2022-08-03T18:36:30.619Z,26.08
2022-08-03T18:39:00.217Z,26.06
2022-08-03T18:41:33.029Z,25.94
2022-08-03T18:44:52.511Z,25.89
2022-08-03T18:47:28.518Z,25.85
2022-08-03T18:50:21.031Z,25.72
2022-08-03T18:52:53.552Z,25.72
2022-08-03T18:55:33.608Z,25.68
2022-08-03T18:58:09.889Z,25.62
2022-08-03T19:00:54.591Z,25.59
2022-08-03T19:03:43.242Z,25.58
2022-08-03T19:06:19.756Z,25.50
2022-08-03T19:08:51.859Z,25.43
2022-08-03T19:11:28.074Z,25.31
2022-08-03T19:13:59.445Z,25.26
2022-08-03T19:16:38.776Z,25.16
2022-08-03T19:19:10.569Z,25.16
2022-08-03T19:21:43.115Z,25.06
2022-08-03T19:24:14.001Z,25.03
2022-08-03T19:26:48.486Z,24.87
2022-08-03T19:29:22.844Z,24.73
2022-08-03T19:31:59.707Z,24.56
2022-08-03T19:34:33.092Z,24.52
2022-08-03T19:37:02.490Z,24.43
2022-08-03T19:39:31.876Z,24.33
2022-08-03T19:42:12.225Z,24.38
2022-08-03T19:44:52.369Z,24.32
2022-08-03T19:47:27.439Z,24.16
2022-08-03T19:50:10.305Z,23.98
2022-08-03T19:52:44.109Z,23.83
2022-08-03T19:55:12.886Z,23.84
2022-08-03T19:57:42.570Z,23.85
2022-08-03T20:00:13.972Z,23.82
2022-08-03T20:02:45.259Z,23.61
2022-08-03T20:05:15.315Z,23.54
2022-08-03T20:07:48.312Z,23.36
2022-08-03T20:10:17.879Z,23.34
2022-08-03T20:12:47.011Z,23.24
2022-08-03T20:15:22.189Z,23.19
2022-08-03T20:18:03.129Z,23.08
2022-08-03T20:20:35.349Z,22.98
2022-08-03T20:23:08.360Z,22.88
2022-08-03T20:25:48.767Z,22.78
2022-08-03T20:28:29.599Z,22.64
2022-08-03T20:30:58.179Z,22.48
2022-08-03T20:33:48.742Z,22.35
2022-08-03T20:36:18.570Z,22.28
2022-08-03T20:38:48.228Z,22.27
2022-08-03T20:41:16.901Z,22.22
2022-08-03T20:43:45.222Z,22.24
2022-08-03T20:46:31.015Z,22.17
2022-08-03T20:49:06.042Z,22.00
2022-08-03T20:51:49.991Z,21.91
2022-08-03T20:54:30.714Z,21.92
2022-08-03T20:57:03.601Z,21.89
2022-08-03T20:59:46.954Z,21.83
2022-08-03T21:02:28.798Z,21.66
2022-08-03T21:05:08.229Z,21.52
2022-08-03T21:08:04.222Z,21.47
2022-08-03T21:10:28.701Z,21.36
2022-08-03T21:16:12.012Z,21.46
2022-08-03T21:18:40.001Z,21.66
2022-08-03T21:21:11.752Z,21.59
2022-08-03T21:23:48.865Z,21.48
2022-08-03T21:26:17.990Z,21.47
2022-08-03T21:28:47.030Z,21.51
2022-08-03T21:31:24.671Z,21.60
2022-08-03T21:33:56.497Z,21.69
2022-08-03T21:36:27.297Z,21.70
2022-08-03T21:38:57.264Z,21.62
2022-08-03T21:41:26.399Z,21.40
2022-08-03T21:43:54.803Z,21.15
2022-08-03T21:46:23.416Z,20.93
2022-08-03T21:48:55.441Z,20.79
2022-08-03T21:51:25.471Z,20.70
2022-08-03T21:54:02.878Z,20.63
2022-08-03T21:56:36.275Z,20.70
2022-08-03T21:59:05.965Z,20.77
2022-08-03T22:01:35.368Z,20.87
2022-08-03T22:04:06.897Z,20.90
2022-08-03T22:06:36.121Z,20.93
2022-08-03T22:09:07.081Z,21.02
2022-08-03T22:11:35.941Z,21.00
2022-08-03T22:14:04.400Z,20.99
2022-08-03T22:16:33.785Z,21.01
2022-08-03T22:19:02.284Z,20.85
2022-08-03T22:21:36.361Z,20.64
2022-08-03T22:24:07.656Z,20.68
2022-08-03T22:26:37.030Z,20.77
2022-08-03T22:29:08.274Z,20.52
2022-08-03T22:31:58.081Z,20.23
2022-08-03T22:34:27.358Z,20.16
2022-08-03T22:37:00.339Z,20.11
2022-08-03T22:39:31.371Z,20.08
2022-08-03T22:42:00.128Z,20.00
2022-08-03T22:44:28.884Z,20.02
2022-08-03T22:46:57.750Z,20.10
2022-08-03T22:49:29.205Z,20.17
2022-08-03T22:51:57.754Z,20.19
2022-08-03T22:54:26.199Z,20.27
2022-08-03T22:56:56.344Z,20.34
2022-08-03T22:59:38.936Z,20.31
2022-08-03T23:02:15.143Z,20.25
2022-08-03T23:04:52.547Z,20.26
2022-08-03T23:07:22.283Z,20.09
2022-08-03T23:09:51.076Z,20.06
2022-08-03T23:12:21.610Z,20.00
2022-08-03T23:14:54.177Z,19.84
2022-08-03T23:17:23.985Z,19.54
2022-08-03T23:19:53.873Z,19.32
2022-08-03T23:22:30.370Z,19.17
2022-08-03T23:25:01.723Z,19.09
2022-08-03T23:27:31.754Z,18.98
2022-08-03T23:30:02.215Z,18.88
2022-08-03T23:32:31.594Z,18.88
2022-08-03T23:35:10.334Z,18.92
2022-08-03T23:38:04.203Z,18.96
2022-08-03T23:40:31.368Z,19.02
2022-08-03T23:43:02.636Z,19.11
2022-08-03T23:45:33.206Z,19.25
2022-08-03T23:48:01.637Z,19.35
2022-08-03T23:50:36.656Z,19.40
2022-08-03T23:53:10.526Z,19.49
2022-08-03T23:55:45.362Z,19.53
2022-08-03T23:58:21.548Z,19.51
